N4RS KMDW-KHPN
Flight info
| Callsign | N4RS |
|---|---|
| Flight time | 1h 40m |
| Altitude | 45000 |
| Route | LEWKE ZIINE PLAIN NELLS JHW MEMMS DANZI VALRE1 |
| Aircraft | E55P/M-SBDGRW/LB2 |
Departure
| Time | 2026-05-04 13:16 |
|---|---|
| Airport | Chicago Midway International Airport (KMDW) |
Arrival
| Time | 2026-05-04 14:57 |
|---|---|
| Airport | Westchester County Airport (KHPN) |
| Time | Latitude | Longitude | Altitude | Speed | Heading |
|---|---|---|---|---|---|
| 2026-05-04 12:48 | 41.78113 | -87.75340 | 624 ft | 0 kts | 224° |
| 2026-05-04 13:10 | 41.78112 | -87.75342 | 624 ft | 1 kts | 227° |
| 2026-05-04 13:10 | 41.78114 | -87.75366 | 624 ft | 3 kts | 336° |
| 2026-05-04 13:11 | 41.78153 | -87.75363 | 624 ft | 7 kts | 333° |
| 2026-05-04 13:11 | 41.78201 | -87.75369 | 624 ft | 9 kts | 44° |
| 2026-05-04 13:11 | 41.78263 | -87.75289 | 624 ft | 14 kts | 43° |
| 2026-05-04 13:11 | 41.78345 | -87.75185 | 624 ft | 16 kts | 43° |
| 2026-05-04 13:12 | 41.78429 | -87.75079 | 624 ft | 17 kts | 43° |
| 2026-05-04 13:12 | 41.78517 | -87.74967 | 624 ft | 17 kts | 43° |
| 2026-05-04 13:12 | 41.78608 | -87.74853 | 624 ft | 18 kts | 43° |
| 2026-05-04 13:12 | 41.78713 | -87.74763 | 624 ft | 18 kts | 40° |
| 2026-05-04 13:13 | 41.78805 | -87.74645 | 624 ft | 18 kts | 44° |
| 2026-05-04 13:13 | 41.78902 | -87.74523 | 624 ft | 19 kts | 43° |
| 2026-05-04 13:13 | 41.78991 | -87.74412 | 624 ft | 15 kts | 43° |
| 2026-05-04 13:13 | 41.79058 | -87.74327 | 624 ft | 9 kts | 44° |
| 2026-05-04 13:14 | 41.79094 | -87.74281 | 624 ft | 3 kts | 43° |
| 2026-05-04 13:14 | 41.79100 | -87.74273 | 624 ft | 0 kts | 42° |
| 2026-05-04 13:15 | 41.79107 | -87.74265 | 624 ft | 4 kts | 35° |
| 2026-05-04 13:15 | 41.79153 | -87.74268 | 624 ft | 8 kts | 333° |
| 2026-05-04 13:15 | 41.79178 | -87.74332 | 624 ft | 8 kts | 236° |
| 2026-05-04 13:16 | 41.79088 | -87.74445 | 624 ft | 46 kts | 223° |
| 2026-05-04 13:16 | 41.78650 | -87.75002 | 637 ft | 121 kts | 222° |
| 2026-05-04 13:16 | 41.77987 | -87.75859 | 1217 ft | 141 kts | 219° |
| 2026-05-04 13:16 | 41.77029 | -87.76302 | 1771 ft | 166 kts | 176° |
| 2026-05-04 13:17 | 41.75947 | -87.75485 | 2218 ft | 195 kts | 137° |
| 2026-05-04 13:17 | 41.75008 | -87.74083 | 2576 ft | 212 kts | 136° |
| 2026-05-04 13:17 | 41.74036 | -87.72591 | 2864 ft | 214 kts | 135° |
| 2026-05-04 13:17 | 41.73074 | -87.71086 | 2966 ft | 214 kts | 135° |
| 2026-05-04 13:18 | 41.72129 | -87.69503 | 2971 ft | 219 kts | 123° |
| 2026-05-04 13:18 | 41.71711 | -87.67522 | 2983 ft | 227 kts | 98° |
| 2026-05-04 13:18 | 41.71670 | -87.65404 | 3063 ft | 236 kts | 92° |
| 2026-05-04 13:18 | 41.71772 | -87.63238 | 3419 ft | 229 kts | 87° |
| 2026-05-04 13:19 | 41.71920 | -87.61121 | 3872 ft | 237 kts | 86° |
| 2026-05-04 13:19 | 41.72084 | -87.58826 | 4463 ft | 260 kts | 85° |
| 2026-05-04 13:19 | 41.72279 | -87.56377 | 5188 ft | 275 kts | 84° |
| 2026-05-04 13:19 | 41.72493 | -87.53794 | 5956 ft | 287 kts | 84° |
| 2026-05-04 13:20 | 41.72717 | -87.51122 | 6790 ft | 295 kts | 84° |
| 2026-05-04 13:20 | 41.72934 | -87.48355 | 7583 ft | 305 kts | 84° |
| 2026-05-04 13:20 | 41.73156 | -87.45499 | 8362 ft | 315 kts | 83° |
| 2026-05-04 13:20 | 41.73387 | -87.42565 | 9208 ft | 321 kts | 83° |
| 2026-05-04 13:21 | 41.73620 | -87.39623 | 10043 ft | 326 kts | 83° |
| 2026-05-04 13:21 | 41.73858 | -87.36581 | 10910 ft | 330 kts | 82° |
| 2026-05-04 13:21 | 41.74097 | -87.33553 | 11774 ft | 333 kts | 83° |
| 2026-05-04 13:21 | 41.74340 | -87.30441 | 12637 ft | 337 kts | 83° |
| 2026-05-04 13:22 | 41.74582 | -87.27338 | 13439 ft | 342 kts | 82° |
| 2026-05-04 13:22 | 41.74828 | -87.24180 | 14376 ft | 341 kts | 82° |
| 2026-05-04 13:22 | 41.75068 | -87.21100 | 15352 ft | 338 kts | 83° |
| 2026-05-04 13:22 | 41.75308 | -87.17980 | 16346 ft | 335 kts | 83° |
| 2026-05-04 13:23 | 41.75541 | -87.14927 | 17306 ft | 331 kts | 83° |
| 2026-05-04 13:23 | 41.75771 | -87.11919 | 18184 ft | 330 kts | 83° |
| 2026-05-04 13:23 | 41.76004 | -87.08850 | 19036 ft | 330 kts | 83° |
| 2026-05-04 13:23 | 41.76210 | -87.05819 | 19812 ft | 332 kts | 87° |
| 2026-05-04 13:24 | 41.76249 | -87.02728 | 20553 ft | 335 kts | 89° |
| 2026-05-04 13:24 | 41.76286 | -86.99614 | 21287 ft | 338 kts | 88° |
| 2026-05-04 13:24 | 41.76325 | -86.96466 | 22005 ft | 341 kts | 88° |
| 2026-05-04 13:25 | 41.76404 | -86.90143 | 23487 ft | 344 kts | 88° |
| 2026-05-04 13:25 | 41.76442 | -86.86940 | 24165 ft | 347 kts | 88° |
| 2026-05-04 13:25 | 41.76478 | -86.83713 | 24796 ft | 352 kts | 88° |
| 2026-05-04 13:25 | 41.76516 | -86.80440 | 25451 ft | 355 kts | 88° |
| 2026-05-04 13:26 | 41.76551 | -86.77162 | 26142 ft | 356 kts | 88° |
| 2026-05-04 13:26 | 41.76588 | -86.73843 | 26742 ft | 360 kts | 87° |
| 2026-05-04 13:26 | 41.76624 | -86.70452 | 27337 ft | 363 kts | 87° |
| 2026-05-04 13:26 | 41.76660 | -86.67097 | 27990 ft | 365 kts | 87° |
| 2026-05-04 13:27 | 41.76694 | -86.63708 | 28610 ft | 367 kts | 87° |
| 2026-05-04 13:27 | 41.76728 | -86.60301 | 29194 ft | 370 kts | 86° |
| 2026-05-04 13:27 | 41.76760 | -86.56878 | 29759 ft | 372 kts | 86° |
| 2026-05-04 13:27 | 41.76793 | -86.53398 | 30333 ft | 375 kts | 86° |
| 2026-05-04 13:28 | 41.76822 | -86.49935 | 31019 ft | 373 kts | 86° |
| 2026-05-04 13:28 | 41.76854 | -86.46468 | 31652 ft | 371 kts | 86° |
| 2026-05-04 13:28 | 41.76884 | -86.43012 | 32201 ft | 372 kts | 86° |
| 2026-05-04 13:28 | 41.76909 | -86.39539 | 32684 ft | 373 kts | 86° |
| 2026-05-04 13:29 | 41.76939 | -86.36058 | 33177 ft | 374 kts | 86° |
| 2026-05-04 13:29 | 41.76965 | -86.32575 | 33685 ft | 375 kts | 87° |
| 2026-05-04 13:29 | 41.76988 | -86.29092 | 34187 ft | 375 kts | 86° |
| 2026-05-04 13:29 | 41.77037 | -86.25610 | 34663 ft | 375 kts | 86° |
| 2026-05-04 13:30 | 41.77076 | -86.22134 | 35101 ft | 376 kts | 86° |
| 2026-05-04 13:30 | 41.77116 | -86.18609 | 35564 ft | 376 kts | 86° |
| 2026-05-04 13:30 | 41.77152 | -86.15124 | 36010 ft | 376 kts | 86° |
| 2026-05-04 13:30 | 41.77188 | -86.11661 | 36465 ft | 375 kts | 86° |
| 2026-05-04 13:31 | 41.77224 | -86.08162 | 36920 ft | 375 kts | 86° |
| 2026-05-04 13:31 | 41.77259 | -86.04689 | 37422 ft | 376 kts | 86° |
| 2026-05-04 13:31 | 41.77293 | -86.01213 | 37946 ft | 376 kts | 86° |
| 2026-05-04 13:31 | 41.77325 | -85.97696 | 38447 ft | 377 kts | 86° |
| 2026-05-04 13:32 | 41.77358 | -85.94225 | 38917 ft | 377 kts | 86° |
| 2026-05-04 13:32 | 41.77388 | -85.90735 | 39341 ft | 377 kts | 85° |
| 2026-05-04 13:32 | 41.77416 | -85.87202 | 39778 ft | 377 kts | 85° |
| 2026-05-04 13:32 | 41.77446 | -85.83745 | 40172 ft | 378 kts | 85° |
| 2026-05-04 13:33 | 41.77472 | -85.80244 | 40515 ft | 378 kts | 85° |
| 2026-05-04 13:33 | 41.77500 | -85.76710 | 40803 ft | 378 kts | 85° |
| 2026-05-04 13:33 | 41.77526 | -85.73196 | 41072 ft | 378 kts | 85° |
| 2026-05-04 13:33 | 41.77550 | -85.69704 | 41314 ft | 378 kts | 85° |
| 2026-05-04 13:34 | 41.77574 | -85.66211 | 41553 ft | 379 kts | 86° |
| 2026-05-04 13:34 | 41.77597 | -85.62671 | 41756 ft | 380 kts | 86° |
| 2026-05-04 13:34 | 41.77617 | -85.59162 | 41961 ft | 381 kts | 86° |
| 2026-05-04 13:34 | 41.77636 | -85.55587 | 42180 ft | 381 kts | 86° |
| 2026-05-04 13:35 | 41.77657 | -85.52070 | 42374 ft | 382 kts | 86° |
| 2026-05-04 13:35 | 41.77690 | -85.44971 | 42745 ft | 383 kts | 86° |
| 2026-05-04 13:35 | 41.77707 | -85.41455 | 42920 ft | 383 kts | 86° |
| 2026-05-04 13:36 | 41.77721 | -85.37884 | 43114 ft | 383 kts | 86° |
| 2026-05-04 13:36 | 41.77734 | -85.34301 | 43293 ft | 383 kts | 87° |
| 2026-05-04 13:36 | 41.77747 | -85.30783 | 43455 ft | 383 kts | 87° |
| 2026-05-04 13:36 | 41.77758 | -85.27206 | 43622 ft | 383 kts | 87° |
| 2026-05-04 13:37 | 41.77768 | -85.23661 | 43783 ft | 383 kts | 87° |
| 2026-05-04 13:37 | 41.77815 | -85.20111 | 43936 ft | 382 kts | 82° |
| 2026-05-04 13:37 | 41.78166 | -85.16583 | 44091 ft | 380 kts | 79° |
| 2026-05-04 13:38 | 41.78873 | -85.09592 | 44345 ft | 382 kts | 79° |
| 2026-05-04 13:38 | 41.79221 | -85.06062 | 44479 ft | 382 kts | 79° |
| 2026-05-04 13:38 | 41.79562 | -85.02587 | 44640 ft | 382 kts | 79° |
| 2026-05-04 13:38 | 41.79907 | -84.99057 | 44759 ft | 384 kts | 80° |
| 2026-05-04 13:39 | 41.80254 | -84.95501 | 44777 ft | 390 kts | 79° |
| 2026-05-04 13:39 | 41.80962 | -84.88197 | 44783 ft | 401 kts | 80° |
| 2026-05-04 13:40 | 41.81684 | -84.80701 | 44780 ft | 413 kts | 80° |
| 2026-05-04 13:40 | 41.82424 | -84.72967 | 44779 ft | 424 kts | 80° |
| 2026-05-04 13:41 | 41.83175 | -84.65044 | 44771 ft | 434 kts | 80° |
| 2026-05-04 13:41 | 41.83934 | -84.56982 | 44766 ft | 444 kts | 80° |
| 2026-05-04 13:42 | 41.85103 | -84.44455 | 44788 ft | 458 kts | 80° |
| 2026-05-04 13:42 | 41.85892 | -84.35901 | 44779 ft | 467 kts | 80° |
| 2026-05-04 13:43 | 41.86686 | -84.27239 | 44770 ft | 469 kts | 81° |
| 2026-05-04 13:43 | 41.87467 | -84.18630 | 44773 ft | 468 kts | 81° |
| 2026-05-04 13:44 | 41.88247 | -84.09965 | 44778 ft | 467 kts | 81° |
| 2026-05-04 13:44 | 41.89014 | -84.01369 | 44785 ft | 465 kts | 81° |
| 2026-05-04 13:45 | 41.89772 | -83.92796 | 44788 ft | 464 kts | 81° |
| 2026-05-04 13:45 | 41.90524 | -83.84219 | 44796 ft | 463 kts | 81° |
| 2026-05-04 13:46 | 41.91267 | -83.75693 | 44800 ft | 463 kts | 81° |
| 2026-05-04 13:46 | 41.92005 | -83.67130 | 44790 ft | 463 kts | 81° |
| 2026-05-04 13:47 | 41.92735 | -83.58585 | 44789 ft | 462 kts | 81° |
| 2026-05-04 13:47 | 41.93459 | -83.50030 | 44792 ft | 461 kts | 82° |
| 2026-05-04 13:48 | 41.94114 | -83.41488 | 44791 ft | 460 kts | 82° |
| 2026-05-04 13:48 | 41.94764 | -83.33015 | 44793 ft | 460 kts | 82° |
| 2026-05-04 13:49 | 41.95406 | -83.24493 | 44790 ft | 460 kts | 82° |
| 2026-05-04 13:49 | 41.96040 | -83.15995 | 44793 ft | 459 kts | 82° |
| 2026-05-04 13:50 | 41.96675 | -83.07509 | 44786 ft | 458 kts | 81° |
| 2026-05-04 13:50 | 41.97587 | -82.99074 | 44787 ft | 457 kts | 79° |
| 2026-05-04 13:51 | 41.98516 | -82.90644 | 44788 ft | 456 kts | 79° |
| 2026-05-04 13:51 | 41.99442 | -82.82201 | 44794 ft | 456 kts | 79° |
| 2026-05-04 13:52 | 42.00812 | -82.69591 | 44804 ft | 455 kts | 79° |
| 2026-05-04 13:53 | 42.01713 | -82.61227 | 44794 ft | 454 kts | 79° |
| 2026-05-04 13:53 | 42.02609 | -82.52863 | 44787 ft | 454 kts | 79° |
| 2026-05-04 13:54 | 42.03943 | -82.40276 | 44805 ft | 454 kts | 79° |
| 2026-05-04 13:55 | 42.05261 | -82.27722 | 44795 ft | 454 kts | 80° |
| 2026-05-04 13:55 | 42.06562 | -82.15183 | 44796 ft | 454 kts | 80° |
| 2026-05-04 13:56 | 42.07426 | -82.06766 | 44805 ft | 453 kts | 80° |
| 2026-05-04 13:57 | 42.08705 | -81.94218 | 44801 ft | 453 kts | 80° |
| 2026-05-04 13:58 | 42.10390 | -81.77484 | 44808 ft | 452 kts | 81° |
| 2026-05-04 13:58 | 42.11635 | -81.64924 | 44813 ft | 452 kts | 81° |
| 2026-05-04 13:59 | 42.12459 | -81.56540 | 44821 ft | 452 kts | 81° |
| 2026-05-04 14:00 | 42.13676 | -81.44044 | 44834 ft | 452 kts | 81° |
| 2026-05-04 14:00 | 42.14887 | -81.31476 | 44816 ft | 453 kts | 81° |
| 2026-05-04 14:01 | 42.15688 | -81.23064 | 44817 ft | 452 kts | 81° |
| 2026-05-04 14:02 | 42.16874 | -81.10495 | 44823 ft | 451 kts | 82° |
| 2026-05-04 14:02 | 42.17654 | -81.02132 | 44826 ft | 451 kts | 82° |
| 2026-05-04 14:03 | 42.18427 | -80.93806 | 44831 ft | 452 kts | 82° |
| 2026-05-04 14:03 | 42.19201 | -80.85402 | 44828 ft | 452 kts | 82° |
| 2026-05-04 14:04 | 42.20341 | -80.72858 | 44806 ft | 451 kts | 82° |
| 2026-05-04 14:04 | 42.21095 | -80.64487 | 44823 ft | 450 kts | 82° |
| 2026-05-04 14:05 | 42.22207 | -80.51997 | 44832 ft | 449 kts | 82° |
| 2026-05-04 14:06 | 42.22945 | -80.43637 | 44849 ft | 450 kts | 82° |
| 2026-05-04 14:06 | 42.23677 | -80.35269 | 44855 ft | 452 kts | 82° |
| 2026-05-04 14:07 | 42.24407 | -80.26860 | 44842 ft | 452 kts | 83° |
| 2026-05-04 14:07 | 42.25126 | -80.18478 | 44844 ft | 451 kts | 83° |
| 2026-05-04 14:08 | 42.25842 | -80.10085 | 44850 ft | 451 kts | 83° |
| 2026-05-04 14:08 | 42.26546 | -80.01734 | 44856 ft | 451 kts | 83° |
| 2026-05-04 14:09 | 42.27599 | -79.89140 | 44847 ft | 451 kts | 83° |
| 2026-05-04 14:10 | 42.28633 | -79.76605 | 44843 ft | 451 kts | 83° |
| 2026-05-04 14:10 | 42.29318 | -79.68189 | 44849 ft | 451 kts | 83° |
| 2026-05-04 14:11 | 42.29994 | -79.59806 | 44850 ft | 451 kts | 83° |
| 2026-05-04 14:11 | 42.31000 | -79.47189 | 44860 ft | 451 kts | 83° |
| 2026-05-04 14:12 | 42.31666 | -79.38752 | 44861 ft | 452 kts | 83° |
| 2026-05-04 14:13 | 42.32651 | -79.26128 | 44838 ft | 453 kts | 84° |
| 2026-05-04 14:13 | 42.33303 | -79.17654 | 44837 ft | 452 kts | 84° |
| 2026-05-04 14:14 | 42.33942 | -79.09262 | 44839 ft | 452 kts | 84° |
| 2026-05-04 14:14 | 42.34585 | -79.00726 | 44417 ft | 462 kts | 84° |
| 2026-05-04 14:14 | 42.34910 | -78.96390 | 44177 ft | 467 kts | 84° |
| 2026-05-04 14:15 | 42.35562 | -78.87624 | 43773 ft | 474 kts | 84° |
| 2026-05-04 14:15 | 42.36209 | -78.78814 | 43358 ft | 476 kts | 84° |
| 2026-05-04 14:16 | 42.36857 | -78.69888 | 42924 ft | 478 kts | 83° |
| 2026-05-04 14:16 | 42.37177 | -78.65488 | 42709 ft | 479 kts | 83° |
| 2026-05-04 14:17 | 42.37817 | -78.56538 | 42246 ft | 481 kts | 83° |
| 2026-05-04 14:17 | 42.38135 | -78.52056 | 42010 ft | 481 kts | 83° |
| 2026-05-04 14:17 | 42.38770 | -78.43038 | 41557 ft | 481 kts | 83° |
| 2026-05-04 14:18 | 42.39080 | -78.38577 | 41336 ft | 480 kts | 83° |
| 2026-05-04 14:18 | 42.39700 | -78.29645 | 40886 ft | 480 kts | 83° |
| 2026-05-04 14:19 | 42.40316 | -78.20643 | 40409 ft | 479 kts | 83° |
| 2026-05-04 14:19 | 42.40615 | -78.16215 | 40175 ft | 480 kts | 83° |
| 2026-05-04 14:19 | 42.40918 | -78.11723 | 39929 ft | 480 kts | 83° |
| 2026-05-04 14:19 | 42.41220 | -78.07244 | 39682 ft | 481 kts | 83° |
| 2026-05-04 14:20 | 42.41518 | -78.02750 | 39433 ft | 482 kts | 83° |
| 2026-05-04 14:20 | 42.41816 | -77.98244 | 39180 ft | 483 kts | 83° |
| 2026-05-04 14:20 | 42.42116 | -77.93689 | 38932 ft | 484 kts | 82° |
| 2026-05-04 14:21 | 42.42705 | -77.84658 | 38558 ft | 484 kts | 82° |
| 2026-05-04 14:21 | 42.42998 | -77.80125 | 38369 ft | 484 kts | 82° |
| 2026-05-04 14:21 | 42.43290 | -77.75614 | 38167 ft | 482 kts | 82° |
| 2026-05-04 14:21 | 42.43577 | -77.71114 | 37976 ft | 480 kts | 82° |
| 2026-05-04 14:22 | 42.43857 | -77.66674 | 37792 ft | 479 kts | 82° |
| 2026-05-04 14:22 | 42.44141 | -77.62173 | 37605 ft | 477 kts | 82° |
| 2026-05-04 14:22 | 42.44418 | -77.57749 | 37414 ft | 476 kts | 82° |
| 2026-05-04 14:22 | 42.44696 | -77.53264 | 37229 ft | 475 kts | 81° |
| 2026-05-04 14:23 | 42.45246 | -77.44333 | 36875 ft | 478 kts | 81° |
| 2026-05-04 14:23 | 42.45521 | -77.39854 | 36699 ft | 479 kts | 81° |
| 2026-05-04 14:23 | 42.45790 | -77.35418 | 36528 ft | 478 kts | 81° |
| 2026-05-04 14:24 | 42.46062 | -77.30952 | 36343 ft | 477 kts | 82° |
| 2026-05-04 14:24 | 42.46329 | -77.26450 | 36157 ft | 476 kts | 82° |
| 2026-05-04 14:24 | 42.46596 | -77.22013 | 35970 ft | 475 kts | 81° |
| 2026-05-04 14:24 | 42.46856 | -77.17584 | 35793 ft | 474 kts | 81° |
| 2026-05-04 14:25 | 42.47117 | -77.13140 | 35612 ft | 473 kts | 81° |
| 2026-05-04 14:25 | 42.47626 | -77.04308 | 35247 ft | 472 kts | 81° |
| 2026-05-04 14:25 | 42.47886 | -76.99893 | 35003 ft | 471 kts | 81° |
| 2026-05-04 14:26 | 42.48139 | -76.95503 | 34888 ft | 475 kts | 81° |
| 2026-05-04 14:26 | 42.48394 | -76.91001 | 34879 ft | 477 kts | 81° |
| 2026-05-04 14:26 | 42.48896 | -76.82074 | 34877 ft | 478 kts | 81° |
| 2026-05-04 14:27 | 42.49386 | -76.73166 | 34602 ft | 476 kts | 81° |
| 2026-05-04 14:27 | 42.49633 | -76.68700 | 34364 ft | 475 kts | 81° |
| 2026-05-04 14:27 | 42.49874 | -76.64269 | 34129 ft | 474 kts | 81° |
| 2026-05-04 14:28 | 42.50114 | -76.59814 | 33893 ft | 473 kts | 81° |
| 2026-05-04 14:28 | 42.50350 | -76.55416 | 33653 ft | 473 kts | 81° |
| 2026-05-04 14:28 | 42.50589 | -76.50958 | 33412 ft | 472 kts | 81° |
| 2026-05-04 14:28 | 42.50822 | -76.46526 | 33166 ft | 472 kts | 81° |
| 2026-05-04 14:29 | 42.51282 | -76.37721 | 32901 ft | 472 kts | 81° |
| 2026-05-04 14:29 | 42.51170 | -76.28809 | 32883 ft | 483 kts | 102° |
| 2026-05-04 14:30 | 42.49134 | -76.20112 | 32880 ft | 485 kts | 106° |
| 2026-05-04 14:31 | 42.45954 | -76.07169 | 32883 ft | 487 kts | 106° |
| 2026-05-04 14:32 | 42.41680 | -75.89875 | 32372 ft | 484 kts | 106° |
| 2026-05-04 14:32 | 42.40601 | -75.85540 | 31758 ft | 487 kts | 106° |
| 2026-05-04 14:32 | 42.39526 | -75.81220 | 31150 ft | 486 kts | 106° |
| 2026-05-04 14:32 | 42.38463 | -75.76948 | 30490 ft | 485 kts | 106° |
| 2026-05-04 14:33 | 42.37388 | -75.72652 | 29815 ft | 483 kts | 106° |
| 2026-05-04 14:33 | 42.36317 | -75.68364 | 29136 ft | 481 kts | 106° |
| 2026-05-04 14:33 | 42.35254 | -75.64123 | 28458 ft | 480 kts | 106° |
| 2026-05-04 14:33 | 42.34182 | -75.59860 | 27770 ft | 478 kts | 106° |
| 2026-05-04 14:34 | 42.33117 | -75.55635 | 27084 ft | 475 kts | 106° |
| 2026-05-04 14:34 | 42.32072 | -75.51479 | 26430 ft | 471 kts | 106° |
| 2026-05-04 14:34 | 42.31021 | -75.47324 | 25780 ft | 467 kts | 106° |
| 2026-05-04 14:34 | 42.29981 | -75.43209 | 25146 ft | 462 kts | 106° |
| 2026-05-04 14:35 | 42.28944 | -75.39113 | 24505 ft | 458 kts | 106° |
| 2026-05-04 14:35 | 42.27919 | -75.35068 | 23875 ft | 453 kts | 106° |
| 2026-05-04 14:35 | 42.26915 | -75.31118 | 23276 ft | 449 kts | 107° |
| 2026-05-04 14:35 | 42.25908 | -75.27158 | 22694 ft | 448 kts | 107° |
| 2026-05-04 14:36 | 42.24889 | -75.23161 | 22106 ft | 447 kts | 107° |
| 2026-05-04 14:36 | 42.23885 | -75.19231 | 21527 ft | 445 kts | 108° |
| 2026-05-04 14:36 | 42.22881 | -75.15305 | 20944 ft | 443 kts | 108° |
| 2026-05-04 14:36 | 42.21877 | -75.11395 | 20367 ft | 441 kts | 108° |
| 2026-05-04 14:37 | 42.20889 | -75.07548 | 19801 ft | 438 kts | 108° |
| 2026-05-04 14:37 | 42.19896 | -75.03680 | 19278 ft | 433 kts | 108° |
| 2026-05-04 14:37 | 42.18916 | -74.99886 | 18960 ft | 427 kts | 109° |
| 2026-05-04 14:37 | 42.17944 | -74.96164 | 18916 ft | 426 kts | 111° |
| 2026-05-04 14:38 | 42.16548 | -74.92617 | 18922 ft | 427 kts | 120° |
| 2026-05-04 14:38 | 42.15104 | -74.89130 | 18915 ft | 428 kts | 120° |
| 2026-05-04 14:38 | 42.13635 | -74.85641 | 18917 ft | 428 kts | 120° |
| 2026-05-04 14:38 | 42.12186 | -74.82187 | 18916 ft | 428 kts | 120° |
| 2026-05-04 14:39 | 42.10732 | -74.78722 | 18918 ft | 428 kts | 120° |
| 2026-05-04 14:39 | 42.09270 | -74.75240 | 18919 ft | 428 kts | 120° |
| 2026-05-04 14:39 | 42.07801 | -74.71741 | 18921 ft | 427 kts | 120° |
| 2026-05-04 14:40 | 42.04879 | -74.64806 | 18929 ft | 427 kts | 120° |
| 2026-05-04 14:40 | 42.03416 | -74.61341 | 18930 ft | 427 kts | 120° |
| 2026-05-04 14:40 | 42.01958 | -74.57884 | 18928 ft | 427 kts | 120° |
| 2026-05-04 14:40 | 42.00495 | -74.54426 | 18927 ft | 427 kts | 120° |
| 2026-05-04 14:41 | 41.99034 | -74.50974 | 18922 ft | 427 kts | 120° |
| 2026-05-04 14:41 | 41.97554 | -74.47483 | 18930 ft | 427 kts | 120° |
| 2026-05-04 14:41 | 41.94617 | -74.40567 | 18748 ft | 431 kts | 120° |
| 2026-05-04 14:42 | 41.91665 | -74.33622 | 17862 ft | 427 kts | 121° |
| 2026-05-04 14:42 | 41.90202 | -74.30191 | 17319 ft | 425 kts | 121° |
| 2026-05-04 14:42 | 41.88745 | -74.26780 | 16765 ft | 419 kts | 121° |
| 2026-05-04 14:43 | 41.87311 | -74.23418 | 16212 ft | 413 kts | 121° |
| 2026-05-04 14:43 | 41.85899 | -74.20123 | 15675 ft | 408 kts | 121° |
| 2026-05-04 14:43 | 41.84330 | -74.17005 | 15113 ft | 398 kts | 134° |
| 2026-05-04 14:43 | 41.82273 | -74.14769 | 14576 ft | 375 kts | 150° |
| 2026-05-04 14:44 | 41.80081 | -74.12979 | 14058 ft | 358 kts | 154° |
| 2026-05-04 14:44 | 41.77958 | -74.11440 | 13595 ft | 344 kts | 156° |
| 2026-05-04 14:44 | 41.75855 | -74.09972 | 13134 ft | 333 kts | 157° |
| 2026-05-04 14:44 | 41.73829 | -74.08590 | 12695 ft | 326 kts | 157° |
| 2026-05-04 14:45 | 41.71823 | -74.07228 | 12249 ft | 320 kts | 158° |
| 2026-05-04 14:45 | 41.69868 | -74.05904 | 11797 ft | 315 kts | 158° |
| 2026-05-04 14:45 | 41.67948 | -74.04605 | 11345 ft | 311 kts | 158° |
| 2026-05-04 14:45 | 41.66032 | -74.03316 | 10891 ft | 307 kts | 158° |
| 2026-05-04 14:46 | 41.64140 | -74.02039 | 10439 ft | 303 kts | 158° |
| 2026-05-04 14:46 | 41.62260 | -74.00769 | 9983 ft | 300 kts | 158° |
| 2026-05-04 14:46 | 41.60411 | -73.99524 | 9529 ft | 298 kts | 157° |
| 2026-05-04 14:46 | 41.58585 | -73.98292 | 9078 ft | 295 kts | 158° |
| 2026-05-04 14:47 | 41.56759 | -73.97057 | 8629 ft | 294 kts | 158° |
| 2026-05-04 14:47 | 41.54941 | -73.95837 | 8180 ft | 293 kts | 158° |
| 2026-05-04 14:47 | 41.53116 | -73.94609 | 7726 ft | 290 kts | 158° |
| 2026-05-04 14:47 | 41.51343 | -73.93417 | 7284 ft | 288 kts | 158° |
| 2026-05-04 14:48 | 41.49552 | -73.92213 | 6833 ft | 285 kts | 158° |
| 2026-05-04 14:48 | 41.47807 | -73.91039 | 6462 ft | 280 kts | 158° |
| 2026-05-04 14:48 | 41.46087 | -73.89888 | 6091 ft | 276 kts | 158° |
| 2026-05-04 14:48 | 41.44368 | -73.88734 | 5980 ft | 275 kts | 158° |
| 2026-05-04 14:49 | 41.42633 | -73.87656 | 5957 ft | 271 kts | 168° |
| 2026-05-04 14:49 | 41.40820 | -73.87441 | 5976 ft | 262 kts | 185° |
| 2026-05-04 14:49 | 41.38981 | -73.87485 | 5870 ft | 256 kts | 188° |
| 2026-05-04 14:49 | 41.37271 | -73.87601 | 5594 ft | 241 kts | 188° |
| 2026-05-04 14:50 | 41.35624 | -73.87732 | 5287 ft | 231 kts | 189° |
| 2026-05-04 14:50 | 41.34066 | -73.87859 | 5001 ft | 222 kts | 189° |
| 2026-05-04 14:50 | 41.32543 | -73.87983 | 4720 ft | 214 kts | 189° |
| 2026-05-04 14:50 | 41.31086 | -73.88101 | 4446 ft | 208 kts | 189° |
| 2026-05-04 14:51 | 41.29649 | -73.88072 | 4147 ft | 210 kts | 171° |
| 2026-05-04 14:51 | 41.28333 | -73.87238 | 3880 ft | 211 kts | 156° |
| 2026-05-04 14:51 | 41.27063 | -73.86253 | 3582 ft | 208 kts | 156° |
| 2026-05-04 14:51 | 41.25822 | -73.85307 | 3315 ft | 204 kts | 156° |
| 2026-05-04 14:52 | 41.24605 | -73.84376 | 3050 ft | 202 kts | 155° |
| 2026-05-04 14:52 | 41.23394 | -73.83456 | 3002 ft | 198 kts | 156° |
| 2026-05-04 14:52 | 41.22212 | -73.82539 | 2986 ft | 195 kts | 156° |
| 2026-05-04 14:52 | 41.21060 | -73.81647 | 2992 ft | 191 kts | 156° |
| 2026-05-04 14:53 | 41.19917 | -73.80764 | 3003 ft | 187 kts | 156° |
| 2026-05-04 14:53 | 41.18811 | -73.79928 | 3011 ft | 178 kts | 155° |
| 2026-05-04 14:53 | 41.17742 | -73.79094 | 2784 ft | 180 kts | 155° |
| 2026-05-04 14:53 | 41.16656 | -73.78256 | 2555 ft | 181 kts | 156° |
| 2026-05-04 14:54 | 41.15578 | -73.77441 | 2297 ft | 179 kts | 157° |
| 2026-05-04 14:54 | 41.14519 | -73.76631 | 2046 ft | 166 kts | 156° |
| 2026-05-04 14:54 | 41.13585 | -73.75912 | 1858 ft | 148 kts | 158° |
| 2026-05-04 14:54 | 41.12722 | -73.75249 | 1653 ft | 138 kts | 160° |
| 2026-05-04 14:55 | 41.11905 | -73.74661 | 1463 ft | 132 kts | 158° |
| 2026-05-04 14:55 | 41.11134 | -73.74052 | 1294 ft | 125 kts | 158° |
| 2026-05-04 14:55 | 41.10388 | -73.73499 | 1104 ft | 122 kts | 158° |
| 2026-05-04 14:55 | 41.09652 | -73.72933 | 955 ft | 121 kts | 156° |
| 2026-05-04 14:56 | 41.08922 | -73.72376 | 789 ft | 119 kts | 156° |
| 2026-05-04 14:56 | 41.08214 | -73.71828 | 616 ft | 119 kts | 157° |
| 2026-05-04 14:56 | 41.07496 | -73.71286 | 436 ft | 116 kts | 153° |
| 2026-05-04 14:56 | 41.06869 | -73.70803 | 405 ft | 81 kts | 154° |
| 2026-05-04 14:57 | 41.06593 | -73.70592 | 394 ft | 19 kts | 149° |
| 2026-05-04 14:57 | 41.06517 | -73.70449 | 389 ft | 19 kts | 103° |
| 2026-05-04 14:57 | 41.06548 | -73.70345 | 390 ft | 12 kts | 333° |
| 2026-05-04 14:57 | 41.06628 | -73.70407 | 393 ft | 15 kts | 329° |
| 2026-05-04 14:58 | 41.06735 | -73.70489 | 399 ft | 19 kts | 330° |
| 2026-05-04 14:58 | 41.06849 | -73.70576 | 404 ft | 18 kts | 330° |
| 2026-05-04 14:58 | 41.06954 | -73.70628 | 409 ft | 14 kts | 8° |
| 2026-05-04 14:58 | 41.07022 | -73.70615 | 412 ft | 3 kts | 316° |
| 2026-05-04 14:59 | 41.07023 | -73.70628 | 412 ft | 1 kts | 240° |
| 2026-05-04 14:59 | 41.07019 | -73.70635 | 412 ft | 0 kts | 241° |